Time;durP1;ratioP1;P1;durP2;ratioP2;P2;SDS_P1;SDS_P2;PMS_P1;PMS_P2;Temp;Humidity;BMP_temperature;BMP_pressure;BME280_temperature;BME280_humidity;BME280_pressure;Samples;Min_cycle;Max_cycle;Signal;HPM_P1;HPM_P2
2022/05/18 00:02:58;;;;;;;1999.90;999.90;;;;;;;13.81;83.75;99663.59;8261497;28;20061;-72
2022/05/18 00:07:00;;;;;;;1999.90;999.90;;;;;;;13.78;83.61;99671.47;8265986;28;20045;-72
2022/05/18 00:11:04;;;;;;;1999.90;999.90;;;;;;;13.68;83.16;99673.34;8256634;28;20050;-72
2022/05/18 00:15:06;;;;;;;1999.90;999.90;;;;;;;13.60;83.84;99669.94;8256094;28;20074;-71
2022/05/18 00:19:07;;;;;;;1999.90;999.90;;;;;;;13.52;84.37;99664.84;8257423;28;20158;-71
2022/05/18 00:23:09;;;;;;;1999.90;999.90;;;;;;;13.53;83.91;99676.13;8256188;28;20054;-72
2022/05/18 00:27:11;;;;;;;1999.90;999.90;;;;;;;13.50;84.42;99676.19;8254755;28;20074;-72
2022/05/18 00:31:14;;;;;;;1999.90;999.90;;;;;;;13.44;84.98;99676.22;8248772;28;20084;-72
2022/05/18 00:35:16;;;;;;;1999.90;999.90;;;;;;;13.39;85.05;99684.13;8239697;28;20105;-72
2022/05/18 00:39:19;;;;;;;1999.90;999.90;;;;;;;13.33;85.31;99680.72;8249147;28;20323;-71
2022/05/18 00:43:29;;;;;;;1999.90;999.90;;;;;;;13.33;86.04;99685.94;8258620;28;20336;-72
2022/05/18 00:47:31;;;;;;;1999.90;999.90;;;;;;;13.29;86.09;99682.50;8252667;28;20061;-71
2022/05/18 00:51:49;;;;;;;1999.90;999.90;;;;;;;13.27;86.02;99684.25;8255691;28;20518;-71
2022/05/18 00:55:57;;;;;;;1999.90;999.90;;;;;;;13.22;86.33;99680.81;8257489;28;20042;-71
2022/05/18 01:00:07;;;;;;;1999.90;999.90;;;;;;;13.20;86.32;99678.22;8252730;28;20053;-71
2022/05/18 01:04:11;;;;;;;1999.90;999.90;;;;;;;13.16;86.34;99673.03;8252095;28;20056;-72
2022/05/18 01:08:20;;;;;;;1999.90;999.90;;;;;;;13.11;86.43;99677.44;8254973;28;20117;-71
2022/05/18 01:12:22;;;;;;;1999.90;999.90;;;;;;;13.06;86.57;99685.28;8241053;28;20052;-72
2022/05/18 01:16:26;;;;;;;1999.90;999.90;;;;;;;13.07;86.25;99686.16;8256013;28;20081;-72
2022/05/18 01:20:36;;;;;;;1999.90;999.90;;;;;;;13.04;86.84;99681.84;8257493;28;20059;-72
2022/05/18 01:24:48;;;;;;;1999.90;999.90;;;;;;;13.02;86.04;99679.25;8255919;28;20057;-72
2022/05/18 01:28:52;;;;;;;;;;;;;;;12.96;86.01;99691.50;8253590;28;20076;-71
2022/05/18 01:32:55;;;;;;;;;;;;;;;12.91;87.03;99695.84;8252803;28;20241;-71
2022/05/18 01:36:56;;;;;;;1999.90;999.90;;;;;;;12.87;87.25;99701.97;8253439;28;20311;-71
2022/05/18 01:41:09;;;;;;;1999.90;999.90;;;;;;;12.81;87.16;99707.25;8256183;28;20437;-71
2022/05/18 01:45:10;;;;;;;;;;;;;;;12.69;87.10;99708.22;8234905;28;20070;-71
2022/05/18 01:49:12;;;;;;;1999.90;999.90;;;;;;;12.66;87.82;99714.31;8237251;28;19925;-71
2022/05/18 01:53:13;;;;;;;1999.90;999.90;;;;;;;12.62;87.41;99710.00;8258880;28;20064;-73
2022/05/18 01:57:15;;;;;;;1999.90;999.90;;;;;;;12.58;87.85;99720.47;8237478;28;20054;-71
2022/05/18 02:01:16;;;;;;;1999.90;999.90;;;;;;;12.54;87.64;99714.38;8256517;28;20424;-71
2022/05/18 02:05:18;;;;;;;1999.90;999.90;;;;;;;12.52;87.64;99718.75;8252054;28;20046;-72
2022/05/18 02:09:20;;;;;;;1999.90;999.90;;;;;;;12.51;87.91;99718.75;8264292;28;20379;-72
2022/05/18 02:13:22;;;;;;;1999.90;999.90;;;;;;;12.47;87.98;99711.84;8273623;28;20351;-72
2022/05/18 02:17:24;;;;;;;1999.90;999.90;;;;;;;12.44;87.97;99712.75;8255758;28;20073;-72
2022/05/18 02:21:26;;;;;;;;;;;;;;;12.37;88.04;99718.84;8258563;28;20331;-72
2022/05/18 02:25:27;;;;;;;1999.90;999.90;;;;;;;12.25;88.15;99717.22;8274773;28;19926;-71
2022/05/18 02:29:29;;;;;;;1999.90;999.90;;;;;;;12.18;88.55;99727.66;8253706;28;20073;-72
2022/05/18 02:33:30;;;;;;;1999.90;999.90;;;;;;;12.16;88.33;99732.00;8268823;28;20064;-72
2022/05/18 02:37:35;;;;;;;1999.90;999.90;;;;;;;12.15;88.17;99731.13;8251254;28;20041;-72
2022/05/18 02:41:36;;;;;;;1999.90;999.90;;;;;;;12.05;88.54;99730.34;8272507;28;20069;-72
2022/05/18 02:45:38;;;;;;;1999.90;999.90;;;;;;;12.01;88.40;99722.53;8230551;28;20082;-72
2022/05/18 02:49:39;;;;;;;1999.90;999.90;;;;;;;11.99;88.14;99738.16;8256347;28;20049;-72
2022/05/18 02:53:41;;;;;;;1999.90;999.90;;;;;;;11.95;88.73;99741.66;8242498;28;20101;-72
2022/05/18 02:57:42;;;;;;;1999.90;999.90;;;;;;;11.94;88.63;99741.66;8255276;28;20073;-72
2022/05/18 03:01:44;;;;;;;1999.90;999.90;;;;;;;11.91;88.66;99741.69;8270453;28;20320;-72
2022/05/18 03:05:46;;;;;;;1999.90;999.90;;;;;;;11.88;88.79;99736.50;8272815;28;20058;-72
2022/05/18 03:09:47;;;;;;;1999.90;999.90;;;;;;;11.86;88.55;99741.69;8264723;28;20127;-72
2022/05/18 03:13:49;;;;;;;1999.90;999.90;;;;;;;11.79;88.92;99743.44;8250032;28;20060;-72
2022/05/18 03:17:52;;;;;;;1999.90;999.90;;;;;;;11.71;89.00;99750.38;8257483;28;20051;-72
2022/05/18 03:26:17;;;;;;;1999.90;999.90;;;;;;;11.63;89.08;99752.13;8259304;28;20081;-72
2022/05/18 03:30:18;;;;;;;1999.90;999.90;;;;;;;11.64;89.23;99755.59;8253375;28;20040;-72
2022/05/18 03:34:20;;;;;;;1999.90;999.90;;;;;;;11.66;89.35;99752.13;8257930;28;20054;-72
2022/05/18 03:38:22;;;;;;;1999.90;999.90;;;;;;;11.68;88.82;99754.75;8241998;28;20069;-72
2022/05/18 03:42:23;;;;;;;1999.90;999.90;;;;;;;11.65;89.08;99755.59;8260753;28;20518;-72
2022/05/18 03:46:25;;;;;;;1999.90;999.90;;;;;;;11.59;89.03;99745.22;8259060;28;20050;-72
2022/05/18 03:50:30;;;;;;;1999.90;999.90;;;;;;;11.50;89.23;99750.47;8238416;28;20054;-72
2022/05/18 03:54:33;;;;;;;1999.90;999.90;;;;;;;11.49;88.96;99748.72;8260679;28;20042;-73
2022/05/18 03:58:35;;;;;;;1999.90;999.90;;;;;;;11.44;89.43;99746.13;8255964;28;20039;-72
2022/05/18 04:02:37;;;;;;;1999.90;999.90;;;;;;;11.46;89.51;99751.31;8236937;28;20390;-72
2022/05/18 04:06:38;;;;;;;1999.90;999.90;;;;;;;11.47;89.72;99748.69;8258602;28;20084;-72
2022/05/18 04:10:40;;;;;;;1999.90;999.90;;;;;;;11.43;89.71;99759.97;8257336;28;20059;-72
2022/05/18 04:14:42;;;;;;;1999.90;999.90;;;;;;;11.43;89.73;99762.59;8258198;28;20078;-72
2022/05/18 04:18:43;;;;;;;1999.90;999.90;;;;;;;11.49;89.62;99760.00;8255406;28;20050;-72
2022/05/18 04:22:46;;;;;;;1999.90;999.90;;;;;;;11.54;90.12;99772.13;8240553;28;20106;-72
2022/05/18 04:26:47;;;;;;;;;;;;;;;11.60;90.58;99766.88;8241651;28;20073;-72
2022/05/18 04:30:50;;;;;;;1999.90;999.90;;;;;;;11.71;90.66;99767.72;8233610;28;19929;-72
2022/05/18 04:34:51;;;;;;;1999.90;999.90;;;;;;;11.81;90.71;99772.06;8238998;28;20062;-72
2022/05/18 04:38:53;;;;;;;1999.90;999.90;;;;;;;11.95;90.50;99778.06;8258141;28;20209;-72
2022/05/18 04:42:56;;;;;;;1999.90;999.90;;;;;;;12.09;89.43;99776.28;8257708;28;20112;-72
2022/05/18 04:46:58;;;;;;;1999.90;999.90;;;;;;;12.21;89.39;99783.19;8234790;28;20064;-72
2022/05/18 04:51:04;;;;;;;1999.90;999.90;;;;;;;12.31;89.31;99784.00;8240421;28;20045;-73
2022/05/18 04:55:06;;;;;;;1999.90;999.90;;;;;;;12.42;88.69;99782.22;8224572;28;20084;-73
2022/05/18 04:59:08;;;;;;;1999.90;999.90;;;;;;;12.50;89.33;99785.63;8239949;28;20680;-73
2022/05/18 05:03:09;;;;;;;1999.90;999.90;;;;;;;12.60;88.64;99792.53;8225784;28;20073;-73
2022/05/18 05:07:12;;;;;;;1999.90;999.90;;;;;;;12.64;88.66;99802.03;8241227;28;20101;-73
2022/05/18 05:11:13;;;;;;;1999.90;999.90;;;;;;;12.81;88.88;99796.72;8226201;28;21004;-73
2022/05/18 05:15:15;;;;;;;1999.90;999.90;;;;;;;12.97;88.44;99800.94;8224813;28;20054;-73
2022/05/18 05:19:17;;;;;;;1999.90;999.90;;;;;;;13.20;87.98;99806.00;8227786;28;20105;-73
2022/05/18 05:23:20;;;;;;;1999.90;999.90;;;;;;;13.47;87.53;99807.53;8244715;28;20073;-73
2022/05/18 05:27:22;;;;;;;1999.90;999.90;;;;;;;13.99;85.66;99801.72;8227999;28;20090;-74
2022/05/18 05:31:24;;;;;;;1999.90;999.90;;;;;;;14.75;82.38;99808.59;8238220;28;20053;-73
2022/05/18 05:35:25;;;;;;;1999.90;999.90;;;;;;;15.19;80.96;99801.81;8231533;28;20050;-73
2022/05/18 05:39:27;;;;;;;1999.90;999.90;;;;;;;15.47;80.34;99809.19;8236040;28;20307;-73
2022/05/18 05:43:32;;;;;;;1999.90;999.90;;;;;;;15.75;80.13;99814.81;8260420;28;20350;-74
2022/05/18 05:47:33;;;;;;;1999.90;999.90;;;;;;;16.21;78.88;99818.28;8231988;28;20050;-74
2022/05/18 05:51:35;;;;;;;1999.90;999.90;;;;;;;16.84;76.63;99824.81;8266257;28;20510;-73
2022/05/18 05:55:37;;;;;;;1999.90;999.90;;;;;;;17.43;74.92;99822.53;8249498;28;20078;-74
2022/05/18 05:59:38;;;;;;;1999.90;999.90;;;;;;;17.97;73.02;99817.59;8264307;28;20487;-73
2022/05/18 06:03:41;;;;;;;1999.90;999.90;;;;;;;18.66;70.16;99826.13;8242795;28;20077;-73
2022/05/18 06:07:43;;;;;;;1999.90;999.90;;;;;;;19.36;68.15;99825.66;8255599;28;20160;-73
2022/05/18 06:11:44;;;;;;;;;;;;;;;19.95;66.07;99822.78;8261299;28;20073;-73
2022/05/18 06:15:50;;;;;;;1999.90;999.90;;;;;;;20.48;63.65;99828.75;8262781;28;20020;-73
2022/05/18 06:19:52;;;;;;;1999.90;999.90;;;;;;;21.03;61.38;99822.19;8266102;28;20046;-73
2022/05/18 06:23:53;;;;;;;1999.90;999.90;;;;;;;21.65;59.01;99826.66;8242396;28;20050;-73
2022/05/18 06:27:55;;;;;;;1999.90;999.90;;;;;;;;;;8242246;28;20050;-73
2022/05/18 06:31:56;;;;;;;1999.90;999.90;;;;;;;22.65;55.52;99830.19;8259994;28;20141;-73
2022/05/18 06:35:58;;;;;;;1999.90;999.90;;;;;;;23.16;53.10;99837.41;8243259;28;20092;-73
2022/05/18 06:40:03;;;;;;;1999.90;999.90;;;;;;;23.44;52.70;99836.94;8241730;28;20053;-73
2022/05/18 06:44:04;;;;;;;1999.90;999.90;;;;;;;23.62;51.67;99836.03;8236545;28;20072;-73
2022/05/18 06:48:06;;;;;;;1999.90;999.90;;;;;;;23.88;51.13;99825.88;8239809;28;20046;-73
2022/05/18 06:52:28;;;;;;;;;;;;;;;24.09;49.82;99832.72;8260452;28;20069;-72
2022/05/18 06:56:35;;;;;;;1999.90;999.90;;;;;;;24.09;49.28;99828.28;8257840;28;19964;-73
2022/05/18 07:00:37;;;;;;;1999.90;999.90;;;;;;;24.16;49.79;99820.84;8236804;28;20144;-73
2022/05/18 07:04:38;;;;;;;1999.90;999.90;;;;;;;24.11;49.50;99818.44;8257895;28;20358;-73
2022/05/18 07:08:41;;;;;;;1999.90;999.90;;;;;;;24.26;48.89;99827.38;8242727;28;20048;-73
2022/05/18 07:12:42;;;;;;;1999.90;999.90;;;;;;;24.55;48.14;99823.16;8261195;28;20060;-73
2022/05/18 07:16:44;;;;;;;1999.90;999.90;;;;;;;24.76;47.77;99817.59;8240736;28;20136;-73
2022/05/18 07:20:46;;;;;;;1999.90;999.90;;;;;;;24.92;47.48;99829.94;8260005;28;20042;-72
2022/05/18 07:24:49;;;;;;;1999.90;999.90;;;;;;;25.10;47.37;99828.06;8260678;28;20425;-73
2022/05/18 07:28:51;;;;;;;1999.90;999.90;;;;;;;25.32;45.97;99824.19;8240765;28;20073;-72
2022/05/18 07:32:53;;;;;;;1999.90;999.90;;;;;;;25.53;45.67;99828.25;8265408;28;20089;-73
2022/05/18 07:36:55;;;;;;;1999.90;999.90;;;;;;;25.67;45.66;99830.94;8205154;28;20161;-72
2022/05/18 07:40:57;;;;;;;1999.90;999.90;;;;;;;25.89;45.92;99818.09;8208562;28;20074;-72
2022/05/18 07:44:58;;;;;;;1999.90;999.90;;;;;;;26.07;45.50;99821.44;8231030;28;20053;-72
2022/05/18 07:49:00;;;;;;;1999.90;999.90;;;;;;;26.22;44.84;99817.00;8207775;28;20057;-72
2022/05/18 07:53:01;;;;;;;1999.90;999.90;;;;;;;26.48;44.50;99820.69;8226565;28;20043;-72
2022/05/18 07:57:08;;;;;;;1999.90;999.90;;;;;;;26.65;44.56;99822.31;8210095;28;20047;-72
2022/05/18 08:01:09;;;;;;;1999.90;999.90;;;;;;;26.87;44.13;99814.63;8188016;28;20054;-72
2022/05/18 08:05:11;;;;;;;1999.90;999.90;;;;;;;26.91;43.04;99817.94;8225040;28;20056;-72
2022/05/18 08:09:13;;;;;;;;;;;;;;;27.25;43.37;99816.63;8228952;28;20051;-72
2022/05/18 08:17:35;;;;;;;1999.90;999.90;;;;;;;27.57;42.66;99818.00;8223290;28;19930;-73
2022/05/18 08:21:39;;;;;;;1999.90;999.90;;;;;;;27.75;42.72;99828.41;8225092;28;20050;-73
2022/05/18 08:25:43;;;;;;;1999.90;999.90;;;;;;;27.76;40.49;99824.78;8229608;28;20051;-73
2022/05/18 08:29:45;;;;;;;1999.90;999.90;;;;;;;27.89;41.95;99823.84;8207450;28;20081;-73
2022/05/18 08:33:47;;;;;;;1999.90;999.90;;;;;;;28.02;41.04;99815.84;8230788;28;20052;-72
2022/05/18 08:37:48;;;;;;;;;;;;;;;28.20;40.67;99819.88;8263652;28;20077;-72
2022/05/18 08:41:51;;;;;;;1999.90;999.90;;;;;;;28.38;41.06;99817.75;8255325;28;19936;-72
2022/05/18 08:46:05;;;;;;;1999.90;999.90;;;;;;;28.42;39.99;99813.91;8239396;28;20038;-72
2022/05/18 08:50:13;;;;;;;1999.90;999.90;;;;;;;28.65;40.78;99816.72;8259912;28;20332;-72
2022/05/18 08:54:33;;;;;;;1999.90;999.90;;;;;;;28.83;40.91;99810.03;8260500;28;20073;-72
2022/05/18 08:58:43;;;;;;;1999.90;999.90;;;;;;;29.07;40.26;99812.75;8240567;28;20133;-72
2022/05/18 09:02:46;;;;;;;1999.90;999.90;;;;;;;29.25;39.70;99806.03;8247356;28;20086;-72
2022/05/18 09:07:02;;;;;;;1999.90;999.90;;;;;;;29.28;38.80;99797.81;8263355;28;20446;-72
2022/05/18 09:11:05;;;;;;;1999.90;999.90;;;;;;;29.45;39.60;99807.22;8255374;28;20050;-72
2022/05/18 09:15:14;;;;;;;1999.90;999.90;;;;;;;29.60;39.43;99800.72;8250226;28;20056;-72
2022/05/18 09:19:29;;;;;;;1999.90;999.90;;;;;;;29.63;38.88;99800.50;8237671;28;20073;-72
2022/05/18 09:24:16;;;;;;;1999.90;999.90;;;;;;;29.73;38.66;99797.97;8250204;28;20050;-72
2022/05/18 09:28:21;;;;;;;1999.90;999.90;;;;;;;29.63;37.64;99795.16;8231367;28;20054;-72
2022/05/18 09:32:26;;;;;;;1999.90;999.90;;;;;;;29.63;38.23;99796.97;8245603;28;20085;-73
2022/05/18 09:36:56;;;;;;;1999.90;999.90;;;;;;;29.88;37.48;99795.94;8250552;28;20062;-73
2022/05/18 09:41:00;;;;;;;1999.90;999.90;;;;;;;30.08;38.73;99793.41;8246301;28;20047;-72
2022/05/18 09:45:07;;;;;;;1999.90;999.90;;;;;;;30.15;37.39;99790.25;8252696;28;20470;-72
2022/05/18 09:49:18;;;;;;;1999.90;999.90;;;;;;;30.33;38.00;99796.81;8251973;28;20124;-72
2022/05/18 09:53:20;;;;;;;1999.90;999.90;;;;;;;30.17;37.50;99791.00;8247894;28;20406;-73
2022/05/18 09:57:27;;;;;;;1999.90;999.90;;;;;;;30.18;37.17;99790.03;8230442;28;20066;-72
2022/05/18 10:10:38;;;;;;;1999.90;999.90;;;;;;;30.47;36.18;99780.50;8249548;28;20042;-72
2022/05/18 10:14:39;;;;;;;1999.90;999.90;;;;;;;30.57;35.65;99778.78;8232862;28;20085;-72
2022/05/18 10:18:49;;;;;;;1999.90;999.90;;;;;;;30.51;36.27;99768.53;8229032;28;20459;-72
2022/05/18 10:22:51;;;;;;;1999.90;999.90;;;;;;;30.61;34.76;99769.53;8262412;28;20048;-72
2022/05/18 10:27:16;;;;;;;1999.90;999.90;;;;;;;30.78;36.73;99770.84;8263655;28;20136;-72
2022/05/18 10:31:28;;;;;;;1999.90;999.90;;;;;;;30.96;35.57;99771.16;8260765;28;20053;-72
2022/05/18 10:35:48;;;;;;;1999.90;999.90;;;;;;;31.06;36.07;99771.22;8241168;28;20081;-72
2022/05/18 10:39:50;;;;;;;1999.90;999.90;;;;;;;31.12;34.16;99771.59;8257147;28;20438;-73
2022/05/18 10:43:54;;;;;;;1999.90;999.90;;;;;;;31.21;33.32;99765.47;8247671;28;20124;-73
2022/05/18 10:48:13;;;;;;;1999.90;999.90;;;;;;;31.23;33.80;99760.81;8253606;28;20113;-73
2022/05/18 10:52:15;;;;;;;1999.90;999.90;;;;;;;31.20;32.24;99750.34;8257656;28;20607;-72
2022/05/18 10:56:28;;;;;;;1999.90;999.90;;;;;;;31.24;34.06;99741.09;8240574;28;20533;-73
2022/05/18 11:00:43;;;;;;;1999.90;999.90;;;;;;;31.17;30.97;99737.19;8236824;28;20133;-73
2022/05/18 11:05:12;;;;;;;1999.90;999.90;;;;;;;30.80;31.96;99727.81;8254885;28;20740;-73
2022/05/18 11:09:27;;;;;;;1999.90;999.90;;;;;;;31.20;32.63;99723.50;8253856;28;20073;-72
2022/05/18 11:13:56;;;;;;;1999.90;999.90;;;;;;;31.44;30.86;99720.59;8240576;28;20042;-72
2022/05/18 11:18:07;;;;;;;1999.90;999.90;;;;;;;31.66;32.08;99722.28;8246467;28;20510;-73
2022/05/18 11:22:37;;;;;;;1999.90;999.90;;;;;;;31.91;31.56;99717.47;8234437;28;20046;-73
2022/05/18 11:26:47;;;;;;;1999.90;999.90;;;;;;;31.95;31.59;99709.00;8254466;28;20050;-72
2022/05/18 11:31:01;;;;;;;1999.90;999.90;;;;;;;32.02;31.31;99709.31;8247315;28;20082;-73
2022/05/18 11:35:32;;;;;;;1999.90;999.90;;;;;;;32.06;30.79;99711.59;8246962;28;20062;-73
2022/05/18 11:40:06;;;;;;;1999.90;999.90;;;;;;;31.86;28.26;99702.63;8237193;28;20049;-73
2022/05/18 11:44:25;;;;;;;1999.90;999.90;;;;;;;31.94;30.81;99701.06;8253309;28;20074;-73
2022/05/18 11:48:57;;;;;;;1999.90;999.90;;;;;;;32.16;30.59;99701.75;8232728;28;20074;-73
2022/05/18 11:53:18;;;;;;;1999.90;999.90;;;;;;;32.21;30.35;99684.34;8258374;28;20042;-73
2022/05/18 11:57:54;;;;;;;1999.90;999.90;;;;;;;32.31;30.48;99687.94;8233409;28;20057;-73
2022/05/18 12:02:14;;;;;;;1999.90;999.90;;;;;;;32.36;29.86;99686.53;8235438;28;20300;-73
2022/05/18 12:06:49;;;;;;;1999.90;999.90;;;;;;;32.50;31.02;99677.25;8236577;28;20054;-73
2022/05/18 12:10:57;;;;;;;1999.90;999.90;;;;;;;32.67;29.86;99675.66;8187542;28;20390;-74
2022/05/18 12:15:08;;;;;;;1999.90;999.90;;;;;;;32.65;28.41;99673.13;8248395;28;20887;-74
2022/05/18 12:19:25;;;;;;;1999.90;999.90;;;;;;;32.52;28.95;99669.88;8235699;28;20109;-73
2022/05/18 12:23:31;;;;;;;1999.90;999.90;;;;;;;32.54;30.44;99670.59;8239070;28;20054;-73
2022/05/18 12:27:33;;;;;;;1999.90;999.90;;;;;;;32.52;30.30;99667.19;8264632;28;20985;-73
2022/05/18 12:31:37;;;;;;;1999.90;999.90;;;;;;;32.61;31.27;99669.03;8252317;28;20512;-73
2022/05/18 12:35:49;;;;;;;1999.90;999.90;;;;;;;32.43;30.58;99676.94;8253226;28;20430;-73
2022/05/18 12:40:28;;;;;;;1999.90;999.90;;;;;;;32.32;30.82;99674.38;8245254;28;20043;-73
2022/05/18 12:44:32;;;;;;;1999.90;999.90;;;;;;;32.04;32.25;99662.53;8238717;28;20698;-73
2022/05/18 12:48:39;;;;;;;1999.90;999.90;;;;;;;32.07;31.26;99664.09;8249808;28;20046;-73
2022/05/18 12:52:57;;;;;;;1999.90;999.90;;;;;;;32.22;31.55;99668.09;8254136;28;20129;-73
2022/05/18 12:57:26;;;;;;;1999.90;999.90;;;;;;;31.73;31.16;99667.06;8234489;28;20121;-74
2022/05/18 13:01:31;;;;;;;1999.90;999.90;;;;;;;31.06;32.11;99656.75;8247264;28;20065;-76
2022/05/18 13:05:38;;;;;;;1999.90;999.90;;;;;;;30.82;32.11;99656.13;8252003;28;20049;-75
2022/05/18 13:09:40;;;;;;;1999.90;999.90;;;;;;;31.04;32.61;99655.16;8238739;28;20050;-75
2022/05/18 13:14:01;;;;;;;1999.90;999.90;;;;;;;31.41;32.38;99666.28;8221079;28;20054;-74
2022/05/18 13:18:34;;;;;;;1999.90;999.90;;;;;;;31.47;31.14;99655.06;8246875;28;20053;-73
2022/05/18 13:22:47;;;;;;;1999.90;999.90;;;;;;;31.43;30.61;99651.78;8241027;28;20096;-73
2022/05/18 13:26:52;;;;;;;1999.90;999.90;;;;;;;31.07;31.99;99650.41;8249833;28;20089;-73
2022/05/18 13:30:59;;;;;;;1999.90;999.90;;;;;;;30.65;31.93;99644.13;8244871;28;20058;-73
2022/05/18 13:35:25;;;;;;;1999.90;999.90;;;;;;;30.29;32.73;99640.81;8260832;28;20093;-73
2022/05/18 13:39:38;;;;;;;1999.90;999.90;;;;;;;30.61;34.81;99642.66;8258605;28;20104;-73
2022/05/18 13:43:43;;;;;;;1999.90;999.90;;;;;;;31.10;33.88;99643.91;8238485;28;20122;-73
2022/05/18 13:47:55;;;;;;;1999.90;999.90;;;;;;;31.41;31.48;99632.25;8232336;28;20116;-73
2022/05/18 13:52:06;;;;;;;1999.90;999.90;;;;;;;31.69;30.62;99627.16;8242273;28;20074;-73
2022/05/18 13:56:21;;;;;;;1999.90;999.90;;;;;;;31.93;30.97;99622.31;8231779;28;20060;-73
2022/05/18 14:00:39;;;;;;;1999.90;999.90;;;;;;;32.10;29.90;99626.19;8255846;28;20073;-73
2022/05/18 14:04:42;;;;;;;1999.90;999.90;;;;;;;32.16;28.88;99605.00;8242874;28;20086;-73
2022/05/18 14:09:04;;;;;;;1999.90;999.90;;;;;;;32.01;28.86;99613.59;8255162;28;20450;-73
2022/05/18 14:13:07;;;;;;;1999.90;999.90;;;;;;;32.15;30.21;99602.47;8241390;28;20058;-74
2022/05/18 14:17:17;;;;;;;1999.90;999.90;;;;;;;32.10;28.27;99600.16;8257264;28;20054;-73
2022/05/18 14:21:25;;;;;;;1999.90;999.90;;;;;;;32.16;29.72;99605.00;8239464;28;20194;-73
2022/05/18 14:25:34;;;;;;;1999.90;999.90;;;;;;;32.29;30.38;99598.53;8239824;28;20064;-73
2022/05/18 14:30:01;;;;;;;1999.90;999.90;;;;;;;32.46;29.95;99595.97;8241310;28;21338;-73
2022/05/18 14:34:10;;;;;;;1999.90;999.90;;;;;;;32.56;28.74;99595.16;8237761;28;20050;-73
2022/05/18 14:38:29;;;;;;;1999.90;999.90;;;;;;;32.56;29.44;99582.56;8240339;28;20092;-73
2022/05/18 14:42:45;;;;;;;1999.90;999.90;;;;;;;32.65;27.89;99581.69;8254839;28;20070;-73
2022/05/18 14:46:53;;;;;;;1999.90;999.90;;;;;;;32.54;27.12;99575.63;8234634;28;20054;-74
2022/05/18 14:51:12;;;;;;;1999.90;999.90;;;;;;;32.53;27.53;99571.25;8253788;28;20471;-74
2022/05/18 14:55:24;;;;;;;1999.90;999.90;;;;;;;32.69;28.27;99563.44;8249860;28;20085;-73
2022/05/18 14:59:26;;;;;;;1999.90;999.90;;;;;;;32.58;28.03;99555.53;8246672;28;20755;-73
2022/05/18 15:03:32;;;;;;;1999.90;999.90;;;;;;;32.59;29.89;99566.13;8224877;28;20058;-73
2022/05/18 15:07:38;;;;;;;1999.90;999.90;;;;;;;32.54;28.83;99552.28;8244532;28;20515;-74
2022/05/18 15:11:46;;;;;;;1999.90;999.90;;;;;;;32.50;28.86;99555.38;8228361;28;20034;-74
2022/05/18 15:15:57;;;;;;;1999.90;999.90;;;;;;;32.59;28.51;99558.06;8239894;28;20347;-74
2022/05/18 15:20:16;;;;;;;1999.90;999.90;;;;;;;32.52;27.46;99565.00;8244781;28;20137;-73
2022/05/18 15:24:27;;;;;;;1999.90;999.90;;;;;;;32.54;28.07;99559.50;8243867;28;20085;-74
2022/05/18 15:28:39;;;;;;;1999.90;999.90;;;;;;;32.55;27.57;99559.34;8245221;28;20140;-73
2022/05/18 15:32:40;;;;;;;1999.90;999.90;;;;;;;32.55;27.30;99562.03;8244159;28;20100;-73
2022/05/18 15:36:42;;;;;;;1999.90;999.90;;;;;;;32.43;28.13;99557.78;8228674;28;20108;-73
2022/05/18 15:40:43;;;;;;;1999.90;999.90;;;;;;;32.30;28.09;99555.38;8210563;28;20141;-74
2022/05/18 15:44:46;;;;;;;1999.90;999.90;;;;;;;32.23;27.97;99548.00;8244630;28;20773;-74
2022/05/18 15:48:47;;;;;;;1999.90;999.90;;;;;;;32.28;28.39;99551.97;8242029;28;20058;-74
2022/05/18 15:52:49;;;;;;;1999.90;999.90;;;;;;;32.25;27.32;99546.00;8211579;28;20042;-74
2022/05/18 15:56:53;;;;;;;1999.90;999.90;;;;;;;32.17;27.80;99541.34;8224706;28;20455;-74
2022/05/18 16:00:54;;;;;;;1999.90;999.90;;;;;;;32.12;28.19;99538.22;8240229;28;20140;-74
2022/05/18 16:04:56;;;;;;;1999.90;999.90;;;;;;;31.97;28.43;99540.50;8255914;28;20046;-74
2022/05/18 16:08:59;;;;;;;1999.90;999.90;;;;;;;31.84;28.63;99539.91;8251735;28;20055;-74
2022/05/18 16:13:02;;;;;;;1999.90;999.90;;;;;;;31.55;28.20;99537.94;8258695;28;20054;-73
2022/05/18 16:17:04;;;;;;;1999.90;999.90;;;;;;;31.29;29.02;99538.56;8239525;28;20054;-73
2022/05/18 16:21:12;;;;;;;1999.90;999.90;;;;;;;31.16;29.35;99538.75;8239263;28;20046;-73
2022/05/18 16:25:31;;;;;;;1999.90;999.90;;;;;;;31.02;29.94;99533.72;8241797;28;20492;-73
2022/05/18 16:29:35;;;;;;;1999.90;999.90;;;;;;;30.74;30.60;99528.09;8240541;28;20072;-73
2022/05/18 16:33:36;;;;;;;1999.90;999.90;;;;;;;30.40;30.90;99535.41;8238757;28;20046;-73
2022/05/18 16:37:38;;;;;;;1999.90;999.90;;;;;;;30.11;30.27;99537.00;8238281;28;20046;-73
2022/05/18 16:41:41;;;;;;;1999.90;999.90;;;;;;;29.92;31.68;99534.94;8236597;28;20038;-73
2022/05/18 16:45:42;;;;;;;1999.90;999.90;;;;;;;29.72;31.81;99528.56;8249923;28;20088;-73
2022/05/18 16:49:44;;;;;;;1999.90;999.90;;;;;;;29.56;31.52;99523.59;8238363;28;20582;-73
2022/05/18 16:53:46;;;;;;;1999.90;999.90;;;;;;;29.32;31.71;99521.03;8258706;28;20128;-73
2022/05/18 16:57:48;;;;;;;1999.90;999.90;;;;;;;29.15;32.48;99513.50;8243665;28;20080;-72
2022/05/18 17:01:50;;;;;;;1999.90;999.90;;;;;;;28.89;33.42;99516.38;8231666;28;20172;-72
2022/05/18 17:05:58;;;;;;;1999.90;999.90;;;;;;;28.58;34.47;99514.38;8240711;28;20045;-73
2022/05/18 17:10:00;;;;;;;1999.90;999.90;;;;;;;28.41;34.89;99509.47;8242759;28;20054;-73
2022/05/18 17:14:05;;;;;;;1999.90;999.90;;;;;;;28.20;35.58;99506.56;8263734;28;20049;-73
2022/05/18 17:18:07;;;;;;;1999.90;999.90;;;;;;;28.00;36.69;99508.03;8242051;28;20060;-74
2022/05/18 17:22:09;;;;;;;1999.90;999.90;;;;;;;27.71;37.45;99517.38;8239297;28;20125;-73
2022/05/18 17:26:14;;;;;;;1999.90;999.90;;;;;;;27.39;39.06;99515.16;8245511;28;20038;-73
2022/05/18 17:30:16;;;;;;;1999.90;999.90;;;;;;;27.01;39.12;99513.41;8240693;28;20081;-72
2022/05/18 17:34:19;;;;;;;1999.90;999.90;;;;;;;26.72;40.48;99511.88;8264556;28;20478;-72
2022/05/18 17:38:20;;;;;;;1999.90;999.90;;;;;;;26.50;40.33;99507.16;8264248;28;20073;-72
2022/05/18 17:42:22;;;;;;;;;;;;;;;26.13;42.01;99511.44;8270949;28;20084;-74
2022/05/18 17:46:23;;;;;;;1999.90;999.90;;;;;;;25.82;43.53;99515.25;8258009;28;20548;-73
2022/05/18 17:50:45;;;;;;;1999.90;999.90;;;;;;;25.50;44.05;99512.00;8257124;28;20054;-73
2022/05/18 17:54:48;;;;;;;1999.90;999.90;;;;;;;25.17;45.32;99515.81;8253289;28;20060;-73
2022/05/18 17:58:49;;;;;;;1999.90;999.90;;;;;;;24.89;46.32;99511.31;8241407;28;20529;-73
2022/05/18 18:02:52;;;;;;;1999.90;999.90;;;;;;;24.70;46.81;99508.06;8248465;28;20046;-73
2022/05/18 18:06:54;;;;;;;1999.90;999.90;;;;;;;24.50;47.75;99509.28;8249795;28;20064;-73
2022/05/18 18:11:01;;;;;;;1999.90;999.90;;;;;;;24.38;48.48;99515.31;8255864;28;20093;-73
2022/05/18 18:15:03;;;;;;;1999.90;999.90;;;;;;;24.18;49.19;99516.44;8256804;28;20451;-73
2022/05/18 18:19:06;;;;;;;1999.90;999.90;;;;;;;24.01;50.71;99514.75;8240697;28;20058;-73
2022/05/18 18:23:14;;;;;;;1999.90;999.90;;;;;;;23.84;49.70;99514.00;8253637;28;20109;-72
2022/05/18 18:27:16;;;;;;;1999.90;999.90;;;;;;;23.69;50.43;99513.06;8233308;28;20089;-73
2022/05/18 18:31:17;;;;;;;1999.90;999.90;;;;;;;23.44;51.13;99514.41;8247513;28;20073;-73
2022/05/18 18:35:19;;;;;;;1999.90;999.90;;;;;;;23.25;51.99;99513.72;8253415;28;20046;-73
2022/05/18 18:39:26;;;;;;;;;;;;;;;23.11;52.53;99518.91;8238779;28;20046;-74
2022/05/18 18:43:32;;;;;;;1999.90;999.90;;;;;;;23.01;53.02;99515.06;8250665;28;19936;-73